createdAt,value
2023-04-26T00:00:26.969Z,1.90
2023-04-26T00:03:00.337Z,1.70
2023-04-26T00:05:32.451Z,1.50
2023-04-26T00:08:04.482Z,1.60
2023-04-26T00:10:35.605Z,1.70
2023-04-26T00:13:06.470Z,1.80
2023-04-26T00:15:38.274Z,1.40
2023-04-26T00:18:09.734Z,1.60
2023-04-26T00:20:41.543Z,1.30
2023-04-26T00:23:12.934Z,1.60
2023-04-26T00:25:44.602Z,1.90
2023-04-26T00:28:15.926Z,1.90
2023-04-26T00:30:48.885Z,1.60
2023-04-26T00:33:20.126Z,1.70
2023-04-26T00:35:51.962Z,1.90
2023-04-26T00:38:22.955Z,1.60
2023-04-26T00:40:55.903Z,1.50
2023-04-26T00:43:27.357Z,1.60
2023-04-26T00:45:58.704Z,1.60
2023-04-26T00:48:30.715Z,1.60
2023-04-26T00:51:03.030Z,1.60
2023-04-26T00:53:35.627Z,1.90
2023-04-26T00:56:07.793Z,1.70
2023-04-26T00:58:39.587Z,2.00
2023-04-26T01:01:10.770Z,1.90
2023-04-26T01:03:43.059Z,1.70
2023-04-26T01:06:17.033Z,1.80
2023-04-26T01:08:48.218Z,1.50
2023-04-26T01:11:21.047Z,1.60
2023-04-26T01:13:54.559Z,1.70
2023-04-26T01:16:26.073Z,1.40
2023-04-26T01:18:58.101Z,1.80
2023-04-26T01:21:29.476Z,1.70
2023-04-26T01:24:00.694Z,1.70
2023-04-26T01:26:32.247Z,1.70
2023-04-26T01:29:14.171Z,1.70
2023-04-26T01:31:45.832Z,1.90
2023-04-26T01:34:17.707Z,1.50
2023-04-26T01:36:50.348Z,1.60
2023-04-26T01:39:21.942Z,1.80
2023-04-26T01:41:54.356Z,1.40
2023-04-26T01:44:25.830Z,1.80
2023-04-26T01:46:57.111Z,1.90
2023-04-26T01:49:29.082Z,1.90
2023-04-26T01:52:00.010Z,1.70
2023-04-26T01:54:31.133Z,1.70
2023-04-26T01:57:04.822Z,1.50
2023-04-26T01:59:36.113Z,1.90
2023-04-26T02:02:07.107Z,1.60
2023-04-26T02:04:42.565Z,1.80
2023-04-26T02:07:13.870Z,1.40
2023-04-26T02:09:50.243Z,1.60
2023-04-26T02:12:21.577Z,1.70
2023-04-26T02:14:52.865Z,1.60
2023-04-26T02:17:24.076Z,1.50
2023-04-26T02:19:55.329Z,1.60
2023-04-26T02:22:26.636Z,1.60
2023-04-26T02:24:57.815Z,1.90
2023-04-26T02:27:32.896Z,1.70
2023-04-26T02:30:05.415Z,1.70
2023-04-26T02:32:37.124Z,1.70
2023-04-26T02:35:11.310Z,1.60
2023-04-26T02:37:42.943Z,1.90
2023-04-26T02:40:15.026Z,1.50
2023-04-26T02:42:46.704Z,1.70
2023-04-26T02:45:18.213Z,1.40
2023-04-26T02:47:49.320Z,1.50
2023-04-26T02:50:21.165Z,1.70
2023-04-26T02:52:53.331Z,1.50
2023-04-26T02:55:24.611Z,1.70
2023-04-26T02:57:55.786Z,2.10
2023-04-26T03:00:28.060Z,1.70
2023-04-26T03:02:59.543Z,1.50
2023-04-26T03:05:31.030Z,1.70
2023-04-26T03:08:02.306Z,1.60
2023-04-26T03:10:34.157Z,1.70
2023-04-26T03:13:05.540Z,1.50
2023-04-26T03:15:36.831Z,1.60
2023-04-26T03:18:08.034Z,1.70
2023-04-26T03:20:39.010Z,1.60
2023-04-26T03:23:11.004Z,1.70
2023-04-26T03:25:42.457Z,1.50
2023-04-26T03:28:13.817Z,1.50
2023-04-26T03:30:45.159Z,1.60
2023-04-26T03:33:16.752Z,1.60
2023-04-26T03:35:47.997Z,1.70
2023-04-26T03:38:19.190Z,1.60
2023-04-26T03:40:50.551Z,1.50
2023-04-26T03:43:21.583Z,1.50
2023-04-26T03:45:54.214Z,1.70
2023-04-26T03:48:25.494Z,1.50
2023-04-26T03:50:56.451Z,1.40
2023-04-26T03:53:27.478Z,1.70
2023-04-26T03:55:59.169Z,1.60
2023-04-26T03:58:30.501Z,1.80
2023-04-26T04:01:02.047Z,1.50
2023-04-26T04:03:33.669Z,1.40
2023-04-26T04:06:05.259Z,1.50
2023-04-26T04:08:36.416Z,1.60
2023-04-26T04:11:07.919Z,1.50
2023-04-26T04:13:41.547Z,1.60
2023-04-26T04:16:12.988Z,1.80
2023-04-26T04:18:44.935Z,1.50
2023-04-26T04:21:16.622Z,1.70
2023-04-26T04:23:48.779Z,1.70
2023-04-26T04:26:21.089Z,1.60
2023-04-26T04:28:52.459Z,1.70
2023-04-26T04:31:24.870Z,1.80
2023-04-26T04:33:56.089Z,1.60
2023-04-26T04:36:27.984Z,1.90
2023-04-26T04:39:00.028Z,1.60
2023-04-26T04:41:32.418Z,1.40
2023-04-26T04:44:04.047Z,1.50
2023-04-26T04:46:35.560Z,1.70
2023-04-26T04:49:09.422Z,2.10
2023-04-26T04:51:40.864Z,1.40
2023-04-26T04:54:16.877Z,1.50
2023-04-26T04:56:49.814Z,1.70
2023-04-26T04:59:21.060Z,1.80
2023-04-26T05:01:52.890Z,1.50
2023-04-26T05:04:24.227Z,1.40
2023-04-26T05:06:56.325Z,1.60
2023-04-26T05:09:28.249Z,1.50
2023-04-26T05:11:59.647Z,1.50
2023-04-26T05:14:31.334Z,1.70
2023-04-26T05:17:02.405Z,1.80
2023-04-26T05:19:34.381Z,1.50
2023-04-26T05:22:06.225Z,1.60
2023-04-26T05:24:38.809Z,1.80
2023-04-26T05:27:10.404Z,1.60
2023-04-26T05:29:55.682Z,1.90
2023-04-26T05:32:50.610Z,2.00
2023-04-26T05:35:39.483Z,2.00
2023-04-26T05:38:10.910Z,2.10
2023-04-26T05:40:42.131Z,2.00
2023-04-26T05:43:13.475Z,2.30
2023-04-26T05:45:53.248Z,2.00
2023-04-26T05:48:25.661Z,1.90
2023-04-26T05:50:57.085Z,2.40
2023-04-26T05:53:28.502Z,2.80
2023-04-26T05:56:00.164Z,2.30
2023-04-26T05:58:31.701Z,2.90
2023-04-26T06:01:03.180Z,3.00
2023-04-26T06:03:35.518Z,3.50
2023-04-26T06:06:08.680Z,3.30
2023-04-26T06:08:43.438Z,5.70
2023-04-26T06:11:14.974Z,5.60
2023-04-26T06:13:47.428Z,3.60
2023-04-26T06:16:19.595Z,4.30
2023-04-26T06:18:52.314Z,4.10
2023-04-26T06:21:23.784Z,5.20
2023-04-26T06:23:55.926Z,7.50
2023-04-26T06:26:31.686Z,3.20
2023-04-26T06:29:03.467Z,4.70
2023-04-26T06:31:34.820Z,2.60
2023-04-26T06:34:07.887Z,3.90
2023-04-26T06:36:40.635Z,6.30
2023-04-26T06:39:12.707Z,7.70
2023-04-26T06:41:44.751Z,8.40
2023-04-26T06:44:16.030Z,7.90
2023-04-26T06:46:47.209Z,6.10
2023-04-26T06:49:19.836Z,6.00
2023-04-26T06:51:52.817Z,5.90
2023-04-26T06:54:29.179Z,4.90
2023-04-26T06:57:01.390Z,3.60
2023-04-26T06:59:32.880Z,3.20
2023-04-26T07:02:04.403Z,3.40
2023-04-26T07:04:35.854Z,2.90
2023-04-26T07:07:07.250Z,2.60
2023-04-26T07:09:38.825Z,2.80
2023-04-26T07:12:12.249Z,2.60
2023-04-26T07:14:43.614Z,2.40
2023-04-26T07:17:15.151Z,2.50
2023-04-26T07:19:46.671Z,2.80
2023-04-26T07:22:18.107Z,2.70
2023-04-26T07:24:49.294Z,2.40
2023-04-26T07:27:20.280Z,2.50
2023-04-26T07:29:54.561Z,3.20
2023-04-26T07:32:25.832Z,2.60
2023-04-26T07:34:57.747Z,2.00
2023-04-26T07:37:28.873Z,2.60
2023-04-26T07:40:00.202Z,2.70
2023-04-26T07:42:31.557Z,2.70
2023-04-26T07:45:03.499Z,2.70
2023-04-26T07:47:34.909Z,3.10
2023-04-26T07:50:06.907Z,2.50
2023-04-26T07:52:38.493Z,2.30
2023-04-26T07:55:11.641Z,2.50
2023-04-26T07:57:42.725Z,2.20
2023-04-26T08:00:17.809Z,2.50
2023-04-26T08:02:49.275Z,4.50
2023-04-26T08:05:21.075Z,3.80
2023-04-26T08:07:52.549Z,2.90
2023-04-26T08:10:24.289Z,2.60
2023-04-26T08:12:57.612Z,3.00
2023-04-26T08:15:29.134Z,2.60
2023-04-26T08:18:00.288Z,2.70
2023-04-26T08:20:32.795Z,3.00
2023-04-26T08:23:04.049Z,2.90
2023-04-26T08:25:35.959Z,3.40
2023-04-26T08:28:08.211Z,2.70
2023-04-26T08:30:39.073Z,3.30
2023-04-26T08:33:10.447Z,2.80
2023-04-26T08:35:41.394Z,3.00
2023-04-26T08:38:12.984Z,2.90
2023-04-26T08:40:46.164Z,3.00
2023-04-26T08:43:18.348Z,2.90
2023-04-26T08:45:51.009Z,2.90
2023-04-26T08:48:22.463Z,3.20
2023-04-26T08:50:55.317Z,3.40
2023-04-26T08:53:27.501Z,3.30
2023-04-26T08:55:59.395Z,3.20
2023-04-26T08:58:31.019Z,3.50
2023-04-26T09:01:03.606Z,3.50
2023-04-26T09:03:35.490Z,3.20
2023-04-26T09:06:08.421Z,3.20
2023-04-26T09:08:44.814Z,3.70
2023-04-26T09:11:15.815Z,3.80
2023-04-26T09:13:47.045Z,4.10
2023-04-26T09:16:18.290Z,3.70
2023-04-26T09:18:55.093Z,2.60
2023-04-26T09:21:26.479Z,2.60
2023-04-26T09:24:04.854Z,2.70
2023-04-26T09:26:35.681Z,2.50
2023-04-26T09:29:17.355Z,2.10
2023-04-26T09:31:50.330Z,2.70
2023-04-26T09:34:22.579Z,2.30
2023-04-26T09:36:57.134Z,2.20
2023-04-26T09:39:35.515Z,3.40
2023-04-26T09:42:07.547Z,2.60
2023-04-26T09:44:39.066Z,2.60
2023-04-26T09:47:11.930Z,2.70
2023-04-26T09:49:51.523Z,2.10
2023-04-26T09:52:22.830Z,2.40
2023-04-26T09:54:54.886Z,2.60
2023-04-26T09:57:25.994Z,2.60
2023-04-26T09:59:57.776Z,2.30
2023-04-26T10:02:30.620Z,2.10
2023-04-26T10:05:03.177Z,2.40
2023-04-26T10:07:34.972Z,2.50
2023-04-26T10:10:07.650Z,2.30
2023-04-26T10:12:39.854Z,2.10
2023-04-26T10:15:13.273Z,2.20
2023-04-26T10:17:44.640Z,2.30
2023-04-26T10:20:18.023Z,2.40
2023-04-26T10:22:54.427Z,2.20
2023-04-26T10:25:37.927Z,2.30
2023-04-26T10:28:09.809Z,3.90
2023-04-26T10:30:58.292Z,2.90
2023-04-26T10:33:29.436Z,2.80
2023-04-26T10:36:17.284Z,2.50
2023-04-26T10:39:17.907Z,2.90
2023-04-26T10:41:48.956Z,3.10
2023-04-26T10:44:45.856Z,2.70
2023-04-26T10:47:28.938Z,2.50
2023-04-26T10:50:11.453Z,2.80
2023-04-26T10:53:08.424Z,3.20
2023-04-26T10:55:43.402Z,2.50
2023-04-26T10:58:30.511Z,2.60
2023-04-26T11:01:17.220Z,3.00
2023-04-26T11:04:11.671Z,3.40
2023-04-26T11:06:52.802Z,3.00
2023-04-26T11:09:50.893Z,3.00
2023-04-26T11:12:25.247Z,3.00
2023-04-26T11:14:56.878Z,3.00
2023-04-26T11:17:28.468Z,3.10
2023-04-26T11:19:59.842Z,2.80
2023-04-26T11:22:30.878Z,3.40
2023-04-26T11:25:03.516Z,2.90
2023-04-26T11:27:34.767Z,3.10
2023-04-26T11:30:09.009Z,2.60
2023-04-26T11:32:40.314Z,2.50
2023-04-26T11:35:12.781Z,2.60
2023-04-26T11:37:43.987Z,3.40
2023-04-26T11:40:18.662Z,2.70
2023-04-26T11:42:49.649Z,2.80
2023-04-26T11:45:20.887Z,2.70
2023-04-26T11:47:52.430Z,3.20
2023-04-26T11:50:26.832Z,2.90
2023-04-26T11:53:00.569Z,2.70
2023-04-26T11:55:33.244Z,3.00
2023-04-26T11:58:11.245Z,3.10
2023-04-26T12:00:58.735Z,3.00
2023-04-26T12:03:35.571Z,2.70
2023-04-26T12:06:08.008Z,2.80
2023-04-26T12:08:39.167Z,3.00
2023-04-26T12:11:11.088Z,2.90
2023-04-26T12:13:43.062Z,2.90
2023-04-26T12:16:25.444Z,3.20
2023-04-26T12:18:59.043Z,2.90
2023-04-26T12:21:31.164Z,2.70
2023-04-26T12:24:02.814Z,2.60
2023-04-26T12:26:46.908Z,2.80
2023-04-26T12:29:18.220Z,3.10
2023-04-26T12:31:49.317Z,3.00
2023-04-26T12:34:20.639Z,3.00
2023-04-26T12:36:52.421Z,2.80
2023-04-26T12:39:24.458Z,3.20
2023-04-26T12:41:55.875Z,3.10
2023-04-26T12:44:27.301Z,3.20
2023-04-26T12:46:59.002Z,2.90
2023-04-26T12:49:30.592Z,2.90
2023-04-26T12:52:02.247Z,2.90
2023-04-26T12:54:33.765Z,2.80
2023-04-26T12:57:05.086Z,2.70
2023-04-26T12:59:36.747Z,3.00
2023-04-26T13:02:08.494Z,2.60
2023-04-26T13:04:41.193Z,3.00
2023-04-26T13:07:13.456Z,2.70
2023-04-26T13:09:44.635Z,2.80
2023-04-26T13:12:16.462Z,2.90
2023-04-26T13:14:47.896Z,2.90
2023-04-26T13:17:19.460Z,2.90
2023-04-26T13:19:50.507Z,3.20
2023-04-26T13:22:21.673Z,2.80
2023-04-26T13:24:52.805Z,3.20
2023-04-26T13:27:24.243Z,3.40
2023-04-26T13:29:57.170Z,2.70
2023-04-26T13:32:29.284Z,2.80
2023-04-26T13:35:00.841Z,2.70
2023-04-26T13:37:32.884Z,2.60
2023-04-26T13:40:04.757Z,2.70
2023-04-26T13:42:35.757Z,2.80
2023-04-26T13:45:09.887Z,2.80
2023-04-26T13:47:41.317Z,3.00
2023-04-26T13:50:13.452Z,3.40
2023-04-26T13:52:44.987Z,3.50
2023-04-26T13:55:17.158Z,3.30
2023-04-26T13:57:48.189Z,3.50
2023-04-26T14:00:21.742Z,3.20
2023-04-26T14:02:55.432Z,3.20
2023-04-26T14:05:27.057Z,4.30
2023-04-26T14:07:58.768Z,3.10
2023-04-26T14:10:29.949Z,3.40
2023-04-26T14:13:01.672Z,5.10
2023-04-26T14:15:32.944Z,3.50
2023-04-26T14:18:04.240Z,2.80
2023-04-26T14:20:35.480Z,2.80
2023-04-26T14:23:06.837Z,3.30
2023-04-26T14:25:37.993Z,3.30
2023-04-26T14:28:09.501Z,2.90
2023-04-26T14:30:40.718Z,3.50
2023-04-26T14:33:12.172Z,3.30
2023-04-26T14:35:43.736Z,3.20
2023-04-26T14:38:15.983Z,2.80
2023-04-26T14:40:47.891Z,6.80
2023-04-26T14:43:19.067Z,4.80
2023-04-26T14:45:50.500Z,46.90
2023-04-26T14:48:21.633Z,45.00
2023-04-26T14:50:58.838Z,41.70
2023-04-26T14:53:29.936Z,7.70
2023-04-26T14:56:02.054Z,8.30
2023-04-26T14:58:33.941Z,19.40
2023-04-26T15:01:05.234Z,11.00
2023-04-26T15:03:36.566Z,5.00
2023-04-26T15:06:09.910Z,6.20
2023-04-26T15:08:41.480Z,3.50
2023-04-26T15:11:13.195Z,4.80
2023-04-26T15:13:44.532Z,3.40
2023-04-26T15:16:16.384Z,4.00
2023-04-26T15:18:47.445Z,3.40
2023-04-26T15:21:20.919Z,3.10
2023-04-26T15:23:52.488Z,4.40
2023-04-26T15:26:24.417Z,9.40
2023-04-26T15:28:55.759Z,5.60
2023-04-26T15:31:26.987Z,3.10
2023-04-26T15:33:59.314Z,4.80
2023-04-26T15:36:30.803Z,3.70
2023-04-26T15:39:02.065Z,6.80
2023-04-26T15:41:33.523Z,7.60
2023-04-26T15:44:04.815Z,8.10
2023-04-26T15:46:38.070Z,5.90
2023-04-26T15:49:09.504Z,8.90
2023-04-26T15:51:40.804Z,5.60
2023-04-26T15:54:12.280Z,4.30
2023-04-26T15:56:43.644Z,3.30
2023-04-26T15:59:15.227Z,5.60
2023-04-26T16:01:46.802Z,14.50
2023-04-26T16:04:18.338Z,7.00
2023-04-26T16:06:49.744Z,12.10
2023-04-26T16:09:25.106Z,11.10
2023-04-26T16:11:57.163Z,7.10
2023-04-26T16:14:28.247Z,10.80
2023-04-26T16:17:00.033Z,3.40
2023-04-26T16:19:31.139Z,2.70
2023-04-26T16:22:02.374Z,3.60
2023-04-26T16:24:33.671Z,3.90
2023-04-26T16:27:04.790Z,4.00
2023-04-26T16:29:35.784Z,2.80
2023-04-26T16:32:07.810Z,2.80
2023-04-26T16:34:38.798Z,6.60
2023-04-26T16:37:10.379Z,7.20
2023-04-26T16:39:41.350Z,5.70
2023-04-26T16:42:12.635Z,3.40
2023-04-26T16:44:43.681Z,2.80
2023-04-26T16:47:14.829Z,2.90
2023-04-26T16:49:46.599Z,2.70
2023-04-26T16:52:17.808Z,3.30
2023-04-26T16:54:48.777Z,3.00
2023-04-26T16:57:20.248Z,3.00
2023-04-26T16:59:51.514Z,3.40
2023-04-26T17:02:22.896Z,2.90
2023-04-26T17:04:55.108Z,3.20
2023-04-26T17:07:27.587Z,2.80
2023-04-26T17:09:58.794Z,3.20
2023-04-26T17:12:29.979Z,3.00
2023-04-26T17:15:04.333Z,3.30
2023-04-26T17:17:35.774Z,2.90
2023-04-26T17:20:10.145Z,2.80
2023-04-26T17:22:42.339Z,2.60
2023-04-26T17:25:13.384Z,2.80
2023-04-26T17:27:44.474Z,2.70
2023-04-26T17:30:17.071Z,2.70
2023-04-26T17:32:48.489Z,3.00
2023-04-26T17:35:19.788Z,2.70
2023-04-26T17:37:51.008Z,2.80
2023-04-26T17:40:22.407Z,2.60
2023-04-26T17:42:56.892Z,3.00
2023-04-26T17:45:28.392Z,3.00
2023-04-26T17:47:59.690Z,3.00
2023-04-26T17:50:31.438Z,3.30
2023-04-26T17:53:04.673Z,2.70
2023-04-26T17:58:24.712Z,2.60
2023-04-26T18:00:56.508Z,2.90
2023-04-26T18:03:31.502Z,2.80
2023-04-26T18:06:03.667Z,2.70
2023-04-26T18:08:35.553Z,2.70
2023-04-26T18:11:07.415Z,2.60
2023-04-26T18:13:38.756Z,2.90
2023-04-26T18:16:11.741Z,2.90
2023-04-26T18:18:43.686Z,2.60
2023-04-26T18:21:15.938Z,2.80
2023-04-26T18:23:48.400Z,2.90
2023-04-26T18:26:19.969Z,2.90
2023-04-26T18:28:51.715Z,2.70
2023-04-26T18:31:23.444Z,2.80
2023-04-26T18:33:55.080Z,2.60
2023-04-26T18:36:30.115Z,2.90
2023-04-26T18:39:01.944Z,2.80
2023-04-26T18:41:33.581Z,2.50
2023-04-26T18:44:11.852Z,2.40
2023-04-26T18:46:44.859Z,2.50
2023-04-26T18:49:16.048Z,2.70
2023-04-26T18:51:48.009Z,2.90
2023-04-26T18:54:19.596Z,2.50
2023-04-26T18:56:51.269Z,2.80
2023-04-26T18:59:22.519Z,3.00
2023-04-26T19:01:53.704Z,3.10
2023-04-26T19:04:25.037Z,2.80
2023-04-26T19:06:56.741Z,2.60
2023-04-26T19:09:28.556Z,2.90
2023-04-26T19:12:00.083Z,3.20
2023-04-26T19:14:31.678Z,3.40
2023-04-26T19:17:04.230Z,4.00
2023-04-26T19:19:35.682Z,3.80
2023-04-26T19:22:06.927Z,3.80
2023-04-26T19:24:38.635Z,3.60
2023-04-26T19:27:10.177Z,3.00
2023-04-26T19:29:41.556Z,3.00
2023-04-26T19:32:12.994Z,3.10
2023-04-26T19:34:44.176Z,2.90
2023-04-26T19:37:15.699Z,3.00
2023-04-26T19:39:47.141Z,2.90
2023-04-26T19:42:19.065Z,3.10
2023-04-26T19:44:50.416Z,2.50
2023-04-26T19:47:22.238Z,2.80
2023-04-26T19:49:55.837Z,2.70
2023-04-26T19:52:27.298Z,2.70
2023-04-26T19:54:58.662Z,2.80
2023-04-26T19:57:30.398Z,2.70
2023-04-26T20:00:01.737Z,2.40
2023-04-26T20:02:39.011Z,2.90
2023-04-26T20:05:11.868Z,2.70
2023-04-26T20:07:43.488Z,2.70
2023-04-26T20:10:15.947Z,3.70
2023-04-26T20:12:47.316Z,3.00
2023-04-26T20:15:19.350Z,2.30
2023-04-26T20:17:50.615Z,2.70
2023-04-26T20:20:22.236Z,2.80
2023-04-26T20:22:53.513Z,2.40
2023-04-26T20:25:24.980Z,2.90
2023-04-26T20:27:56.793Z,3.10
2023-04-26T20:30:29.486Z,2.70
2023-04-26T20:33:01.213Z,2.90
2023-04-26T20:35:33.169Z,2.60
2023-04-26T20:38:05.230Z,3.00
2023-04-26T20:40:37.295Z,2.60
2023-04-26T20:43:09.494Z,3.10
2023-04-26T20:45:42.356Z,2.50
2023-04-26T20:48:14.535Z,2.90
2023-04-26T20:50:46.317Z,2.60
2023-04-26T20:53:17.920Z,2.60
2023-04-26T20:55:49.486Z,2.70
2023-04-26T20:58:20.921Z,2.80
2023-04-26T21:00:55.372Z,3.00
2023-04-26T21:03:27.277Z,2.50
2023-04-26T21:05:58.840Z,2.50
2023-04-26T21:08:30.320Z,3.00
2023-04-26T21:11:02.116Z,2.60
2023-04-26T21:13:33.185Z,2.80
2023-04-26T21:16:04.961Z,2.40
2023-04-26T21:18:36.488Z,2.70
2023-04-26T21:21:08.035Z,2.50
2023-04-26T21:23:39.487Z,2.90
2023-04-26T21:26:13.706Z,2.30
2023-04-26T21:28:45.322Z,2.40
2023-04-26T21:31:18.173Z,2.50
2023-04-26T21:33:49.810Z,2.40
2023-04-26T21:36:21.146Z,2.50
2023-04-26T21:38:53.034Z,2.70
2023-04-26T21:41:25.913Z,2.40
2023-04-26T21:43:58.716Z,2.70
2023-04-26T21:46:29.740Z,2.40
2023-04-26T21:49:01.570Z,2.40
2023-04-26T21:51:33.539Z,2.30
2023-04-26T21:54:05.175Z,2.20
2023-04-26T21:56:36.490Z,2.20
2023-04-26T21:59:08.538Z,2.10
2023-04-26T22:01:40.127Z,2.60
2023-04-26T22:04:11.707Z,2.30
2023-04-26T22:06:43.445Z,2.20
2023-04-26T22:09:14.906Z,2.50
2023-04-26T22:11:47.481Z,2.20
2023-04-26T22:14:19.034Z,2.20
2023-04-26T22:16:50.498Z,2.50
2023-04-26T22:19:22.943Z,2.30
2023-04-26T22:21:56.158Z,2.50
2023-04-26T22:24:38.253Z,2.40
2023-04-26T22:27:13.701Z,2.20
2023-04-26T22:29:45.092Z,2.10
2023-04-26T22:32:16.690Z,2.70
2023-04-26T22:34:48.209Z,2.40
2023-04-26T22:37:21.567Z,2.30
2023-04-26T22:39:53.705Z,2.20
2023-04-26T22:42:25.188Z,2.40
2023-04-26T22:44:56.693Z,2.20
2023-04-26T22:47:28.310Z,2.20
2023-04-26T22:50:00.058Z,2.30
2023-04-26T22:52:32.234Z,2.40
2023-04-26T22:55:04.289Z,2.30
2023-04-26T22:57:35.547Z,2.60
2023-04-26T23:00:10.301Z,2.70
2023-04-26T23:02:42.015Z,2.10
2023-04-26T23:05:14.152Z,2.50
2023-04-26T23:07:45.834Z,2.30
2023-04-26T23:10:17.313Z,2.50
2023-04-26T23:12:50.927Z,2.40
2023-04-26T23:15:22.953Z,2.80
2023-04-26T23:17:54.184Z,2.30
2023-04-26T23:20:25.717Z,2.50
2023-04-26T23:22:57.263Z,2.20
2023-04-26T23:25:28.792Z,2.30
2023-04-26T23:28:00.316Z,2.40
2023-04-26T23:30:31.609Z,2.40
2023-04-26T23:33:03.081Z,2.50
2023-04-26T23:35:34.913Z,2.80
2023-04-26T23:38:06.411Z,2.70
2023-04-26T23:40:38.637Z,2.30
2023-04-26T23:43:10.082Z,2.70
2023-04-26T23:45:47.392Z,2.50
2023-04-26T23:48:19.375Z,2.30
2023-04-26T23:50:50.810Z,2.40
2023-04-26T23:53:22.126Z,2.40
2023-04-26T23:55:53.679Z,2.20
2023-04-26T23:58:24.977Z,2.30
